Forestdale, Alabama
Current Conditions -  °F | °C
As of 8:53 PM on Sunday 23 Nov 2014 (Local Time) from KBHM Reporting Station
Overcast Overcast  
Wind Chill: 62°   Ceiling: 1600
Heat Index: 62°   Visibility: 10mi
Dew Point: 57°   Wind: 15mph
Humidity: 84%   Direction: 190°S
Pressure: 29.67"   Gusts: 25mph
Location:  33.57°N, 86.9°W
Report Text: KBHM 240253Z 19013G22KT 10SM BKN016 OVC025 17/14 A2967 RMK AO2 SLP044 T01670139 51019
Loading
Personal Weather Stations






























Interactive Weather Map New forecast layout! Learn more

10-Day Weather Forecast

Advertisements
Track Severe Weather on mobile